<?xml version="1.0" encoding="UTF-8" standalone="no" ?><gpx xmlns="http://www.topografix.com/GPX/1/1" xmlns:gpxx="http://www.garmin.com/xmlschemas/GpxExtensions/v3" xmlns:wptx1="http://www.garmin.com/xmlschemas/WaypointExtension/v1" xmlns:gpxtpx="http://www.garmin.com/xmlschemas/TrackPointExtension/v1" creator="eTrex 30" version="1.1" xmlns:xsi="http://www.w3.org/2001/XMLSchema-instance" xsi:schemaLocation="http://www.topografix.com/GPX/1/1 http://www.topografix.com/GPX/1/1/gpx.xsd http://www.garmin.com/xmlschemas/GpxExtensions/v3 http://www8.garmin.com/xmlschemas/GpxExtensionsv3.xsd http://www.garmin.com/xmlschemas/WaypointExtension/v1 http://www8.garmin.com/xmlschemas/WaypointExtensionv1.xsd http://www.garmin.com/xmlschemas/TrackPointExtension/v1 http://www.garmin.com/xmlschemas/TrackPointExtensionv1.xsd"><metadata><link href="http://www.garmin.com"><text>Garmin International</text></link><time>2015-11-20T14:30:34Z</time></metadata><trk><name>20-NOV-15 16:30:28</name><extensions><gpxx:TrackExtension><gpxx:DisplayColor>Cyan</gpxx:DisplayColor></gpxx:TrackExtension></extensions><trkseg><trkpt lat="31.5172454808" lon="35.5587068293"><ele>-257.50</ele><time>2015-11-20T11:19:00Z</time></trkpt><trkpt lat="31.5172365122" lon="35.5586908199"><ele>-257.02</ele><time>2015-11-20T11:19:43Z</time></trkpt><trkpt lat="31.5172417089" lon="35.5587097630"><ele>-256.53</ele><time>2015-11-20T11:20:11Z</time></trkpt><trkpt lat="31.5169748291" lon="35.5587086733"><ele>-257.02</ele><time>2015-11-20T11:20:24Z</time></trkpt><trkpt lat="31.5166666266" lon="35.5586919095"><ele>-257.02</ele><time>2015-11-20T11:20:32Z</time></trkpt><trkpt lat="31.5159368981" lon="35.5587113556"><ele>-257.50</ele><time>2015-11-20T11:20:45Z</time></trkpt><trkpt lat="31.5147828776" lon="35.5588965956"><ele>-259.90</ele><time>2015-11-20T11:21:03Z</time></trkpt><trkpt lat="31.5143227950" lon="35.5590497330"><ele>-260.86</ele><time>2015-11-20T11:21:14Z</time></trkpt><trkpt lat="31.5143127367" lon="35.5590390880"><ele>-260.86</ele><time>2015-11-20T11:21:36Z</time></trkpt><trkpt lat="31.5143026784" lon="35.5590733700"><ele>-260.38</ele><time>2015-11-20T11:22:11Z</time></trkpt><trkpt lat="31.5143092163" lon="35.5590726994"><ele>-259.90</ele><time>2015-11-20T11:22:41Z</time></trkpt><trkpt lat="31.5142709948" lon="35.5590896308"><ele>-260.38</ele><time>2015-11-20T11:23:11Z</time></trkpt><trkpt lat="31.5138760395" lon="35.5592420138"><ele>-260.86</ele><time>2015-11-20T11:23:21Z</time></trkpt><trkpt lat="31.5128984582" lon="35.5597581714"><ele>-263.26</ele><time>2015-11-20T11:23:36Z</time></trkpt><trkpt lat="31.5116391610" lon="35.5604556296"><ele>-266.15</ele><time>2015-11-20T11:23:53Z</time></trkpt><trkpt lat="31.5104981326" lon="35.5610965099"><ele>-269.51</ele><time>2015-11-20T11:24:09Z</time></trkpt><trkpt lat="31.5095906239" lon="35.5615757033"><ele>-272.40</ele><time>2015-11-20T11:24:21Z</time></trkpt><trkpt lat="31.5090860333" lon="35.5618097261"><ele>-275.76</ele><time>2015-11-20T11:24:27Z</time></trkpt><trkpt lat="31.5081251319" lon="35.5621809606"><ele>-279.13</ele><time>2015-11-20T11:24:37Z</time></trkpt><trkpt lat="31.5075933840" lon="35.5623476766"><ele>-282.01</ele><time>2015-11-20T11:24:42Z</time></trkpt><trkpt lat="31.5072581917" lon="35.5624371115"><ele>-283.93</ele><time>2015-11-20T11:24:45Z</time></trkpt><trkpt lat="31.5066776611" lon="35.5625757482"><ele>-287.30</ele><time>2015-11-20T11:24:50Z</time></trkpt><trkpt lat="31.5061019920" lon="35.5626765825"><ele>-290.66</ele><time>2015-11-20T11:24:55Z</time></trkpt><trkpt lat="31.5055347886" lon="35.5627425481"><ele>-294.03</ele><time>2015-11-20T11:25:00Z</time></trkpt><trkpt lat="31.5053042863" lon="35.5627589766"><ele>-294.99</ele><time>2015-11-20T11:25:02Z</time></trkpt><trkpt lat="31.5048359055" lon="35.5627942644"><ele>-297.87</ele><time>2015-11-20T11:25:06Z</time></trkpt><trkpt lat="31.5045930818" lon="35.5628016405"><ele>-299.31</ele><time>2015-11-20T11:25:08Z</time></trkpt><trkpt lat="31.5039676242" lon="35.5628099386"><ele>-302.68</ele><time>2015-11-20T11:25:13Z</time></trkpt><trkpt lat="31.5034647100" lon="35.5628024787"><ele>-305.56</ele><time>2015-11-20T11:25:17Z</time></trkpt><trkpt lat="31.5031069703" lon="35.5628048256"><ele>-307.48</ele><time>2015-11-20T11:25:20Z</time></trkpt><trkpt lat="31.5025081672" lon="35.5628140457"><ele>-310.37</ele><time>2015-11-20T11:25:25Z</time></trkpt><trkpt lat="31.5020205081" lon="35.5628448073"><ele>-313.25</ele><time>2015-11-20T11:25:29Z</time></trkpt><trkpt lat="31.5015243832" lon="35.5629061628"><ele>-316.14</ele><time>2015-11-20T11:25:33Z</time></trkpt><trkpt lat="31.5013999958" lon="35.5629271176"><ele>-316.14</ele><time>2015-11-20T11:25:34Z</time></trkpt><trkpt lat="31.5007721912" lon="35.5630623177"><ele>-319.98</ele><time>2015-11-20T11:25:39Z</time></trkpt><trkpt lat="31.5001671854" lon="35.5632483121"><ele>-323.35</ele><time>2015-11-20T11:25:44Z</time></trkpt><trkpt lat="31.4996852260" lon="35.5634295288"><ele>-326.23</ele><time>2015-11-20T11:25:48Z</time></trkpt><trkpt lat="31.4990839921" lon="35.5637095682"><ele>-329.59</ele><time>2015-11-20T11:25:53Z</time></trkpt><trkpt lat="31.4988417551" lon="35.5638283398"><ele>-330.56</ele><time>2015-11-20T11:25:55Z</time></trkpt><trkpt lat="31.4984735381" lon="35.5640039407"><ele>-333.92</ele><time>2015-11-20T11:25:58Z</time></trkpt><trkpt lat="31.4977174066" lon="35.5643122271"><ele>-337.77</ele><time>2015-11-20T11:26:04Z</time></trkpt><trkpt lat="31.4971977286" lon="35.5644738302"><ele>-340.65</ele><time>2015-11-20T11:26:08Z</time></trkpt><trkpt lat="31.4966772124" lon="35.5645942781"><ele>-344.01</ele><time>2015-11-20T11:26:12Z</time></trkpt><trkpt lat="31.4965467900" lon="35.5646201782"><ele>-344.01</ele><time>2015-11-20T11:26:13Z</time></trkpt><trkpt lat="31.4959018864" lon="35.5647003092"><ele>-348.34</ele><time>2015-11-20T11:26:18Z</time></trkpt><trkpt lat="31.4957748167" lon="35.5647116248"><ele>-348.34</ele><time>2015-11-20T11:26:19Z</time></trkpt><trkpt lat="31.4951548073" lon="35.5647699628"><ele>-351.71</ele><time>2015-11-20T11:26:24Z</time></trkpt><trkpt lat="31.4945599437" lon="35.5648725573"><ele>-355.07</ele><time>2015-11-20T11:26:29Z</time></trkpt><trkpt lat="31.4936689474" lon="35.5651646666"><ele>-357.95</ele><time>2015-11-20T11:26:37Z</time></trkpt><trkpt lat="31.4929041825" lon="35.5655509047"><ele>-360.84</ele><time>2015-11-20T11:26:45Z</time></trkpt><trkpt lat="31.4916365873" lon="35.5665591639"><ele>-363.72</ele><time>2015-11-20T11:27:01Z</time></trkpt><trkpt lat="31.4904505480" lon="35.5677094124"><ele>-365.16</ele><time>2015-11-20T11:27:18Z</time></trkpt><trkpt lat="31.4890760835" lon="35.5690438114"><ele>-367.57</ele><time>2015-11-20T11:27:39Z</time></trkpt><trkpt lat="31.4877621364" lon="35.5703024380"><ele>-369.97</ele><time>2015-11-20T11:28:00Z</time></trkpt><trkpt lat="31.4865170885" lon="35.5713525228"><ele>-371.89</ele><time>2015-11-20T11:28:19Z</time></trkpt><trkpt lat="31.4852739684" lon="35.5722342152"><ele>-373.82</ele><time>2015-11-20T11:28:37Z</time></trkpt><trkpt lat="31.4843487740" lon="35.5727825593"><ele>-374.78</ele><time>2015-11-20T11:28:52Z</time></trkpt><trkpt lat="31.4839905314" lon="35.5729919393"><ele>-375.74</ele><time>2015-11-20T11:29:04Z</time></trkpt><trkpt lat="31.4839179441" lon="35.5730335135"><ele>-375.74</ele><time>2015-11-20T11:29:06Z</time></trkpt><trkpt lat="31.4838813152" lon="35.5730576534"><ele>-375.74</ele><time>2015-11-20T11:29:07Z</time></trkpt><trkpt lat="31.4838417526" lon="35.5730763450"><ele>-375.74</ele><time>2015-11-20T11:29:08Z</time></trkpt><trkpt lat="31.4838006813" lon="35.5730947852"><ele>-375.74</ele><time>2015-11-20T11:29:09Z</time></trkpt><trkpt lat="31.4837605320" lon="35.5731167458"><ele>-375.74</ele><time>2015-11-20T11:29:10Z</time></trkpt><trkpt lat="31.4829136245" lon="35.5735252798"><ele>-376.22</ele><time>2015-11-20T11:29:26Z</time></trkpt><trkpt lat="31.4816765394" lon="35.5740251765"><ele>-376.70</ele><time>2015-11-20T11:29:47Z</time></trkpt><trkpt lat="31.4806508459" lon="35.5743980035"><ele>-376.22</ele><time>2015-11-20T11:30:05Z</time></trkpt><trkpt lat="31.4797676448" lon="35.5747424997"><ele>-375.74</ele><time>2015-11-20T11:30:21Z</time></trkpt><trkpt lat="31.4787391853" lon="35.5751044303"><ele>-375.26</ele><time>2015-11-20T11:30:38Z</time></trkpt><trkpt lat="31.4776071254" lon="35.5753942765"><ele>-374.78</ele><time>2015-11-20T11:30:56Z</time></trkpt><trkpt lat="31.4762906637" lon="35.5754640140"><ele>-375.26</ele><time>2015-11-20T11:31:17Z</time></trkpt><trkpt lat="31.4750462864" lon="35.5754640140"><ele>-376.22</ele><time>2015-11-20T11:31:35Z</time></trkpt><trkpt lat="31.4742793422" lon="35.5754646845"><ele>-376.70</ele><time>2015-11-20T11:31:46Z</time></trkpt><trkpt lat="31.4742089342" lon="35.5754579790"><ele>-376.70</ele><time>2015-11-20T11:31:47Z</time></trkpt><trkpt lat="31.4728206396" lon="35.5751991458"><ele>-375.74</ele><time>2015-11-20T11:32:08Z</time></trkpt><trkpt lat="31.4716608357" lon="35.5747217964"><ele>-373.33</ele><time>2015-11-20T11:32:29Z</time></trkpt><trkpt lat="31.4707564283" lon="35.5741434451"><ele>-370.45</ele><time>2015-11-20T11:32:48Z</time></trkpt><trkpt lat="31.4699209202" lon="35.5735657644"><ele>-368.53</ele><time>2015-11-20T11:33:07Z</time></trkpt><trkpt lat="31.4695092849" lon="35.5732848868"><ele>-368.05</ele><time>2015-11-20T11:33:18Z</time></trkpt><trkpt lat="31.4689539839" lon="35.5729662906"><ele>-367.57</ele><time>2015-11-20T11:33:32Z</time></trkpt><trkpt lat="31.4680551924" lon="35.5726744328"><ele>-367.57</ele><time>2015-11-20T11:33:49Z</time></trkpt><trkpt lat="31.4674426429" lon="35.5725920387"><ele>-368.53</ele><time>2015-11-20T11:34:04Z</time></trkpt><trkpt lat="31.4672084525" lon="35.5726007558"><ele>-368.53</ele><time>2015-11-20T11:34:14Z</time></trkpt><trkpt lat="31.4671348594" lon="35.5725814775"><ele>-368.53</ele><time>2015-11-20T11:34:29Z</time></trkpt><trkpt lat="31.4671311714" lon="35.5725979898"><ele>-368.53</ele><time>2015-11-20T11:34:32Z</time></trkpt><trkpt lat="31.4671365358" lon="35.5726329423"><ele>-368.53</ele><time>2015-11-20T11:34:34Z</time></trkpt><trkpt lat="31.4671491086" lon="35.5726523884"><ele>-369.01</ele><time>2015-11-20T11:34:35Z</time></trkpt><trkpt lat="31.4671709854" lon="35.5726625305"><ele>-368.53</ele><time>2015-11-20T11:34:36Z</time></trkpt><trkpt lat="31.4671957120" lon="35.5726695713"><ele>-368.53</ele><time>2015-11-20T11:34:37Z</time></trkpt><trkpt lat="31.4675092790" lon="35.5727002490"><ele>-369.01</ele><time>2015-11-20T11:34:50Z</time></trkpt><trkpt lat="31.4675541222" lon="35.5726885144"><ele>-368.53</ele><time>2015-11-20T11:35:03Z</time></trkpt><trkpt lat="31.4675107878" lon="35.5726890173"><ele>-368.53</ele><time>2015-11-20T11:35:21Z</time></trkpt><trkpt lat="31.4674973767" lon="35.5726850778"><ele>-368.53</ele><time>2015-11-20T11:35:22Z</time></trkpt><trkpt lat="31.4674848877" lon="35.5726768635"><ele>-368.53</ele><time>2015-11-20T11:35:23Z</time></trkpt><trkpt lat="31.4674738236" lon="35.5726654641"><ele>-368.53</ele><time>2015-11-20T11:35:24Z</time></trkpt><trkpt lat="31.4674639329" lon="35.5726529751"><ele>-368.53</ele><time>2015-11-20T11:35:25Z</time></trkpt><trkpt lat="31.4673254639" lon="35.5725586787"><ele>-369.01</ele><time>2015-11-20T11:35:40Z</time></trkpt><trkpt lat="31.4673132263" lon="35.5725575052"><ele>-369.01</ele><time>2015-11-20T11:35:41Z</time></trkpt><trkpt lat="31.4673083648" lon="35.5725490395"><ele>-369.49</ele><time>2015-11-20T11:35:52Z</time></trkpt><trkpt lat="31.4672906790" lon="35.5725463573"><ele>-369.49</ele><time>2015-11-20T11:36:20Z</time></trkpt><trkpt lat="31.4673191775" lon="35.5725391489"><ele>-369.97</ele><time>2015-11-20T11:37:05Z</time></trkpt><trkpt lat="31.4672182593" lon="35.5723761208"><ele>-372.37</ele><time>2015-11-20T11:37:22Z</time></trkpt><trkpt lat="31.4671953768" lon="35.5723408330"><ele>-372.85</ele><time>2015-11-20T11:37:26Z</time></trkpt><trkpt lat="31.4671538863" lon="35.5723223090"><ele>-373.33</ele><time>2015-11-20T11:37:30Z</time></trkpt><trkpt lat="31.4670297503" lon="35.5723344628"><ele>-373.82</ele><time>2015-11-20T11:37:41Z</time></trkpt><trkpt lat="31.4669678081" lon="35.5723974109"><ele>-373.82</ele><time>2015-11-20T11:37:58Z</time></trkpt><trkpt lat="31.4669781178" lon="35.5724283401"><ele>-373.82</ele><time>2015-11-20T11:38:11Z</time></trkpt><trkpt lat="31.4670770243" lon="35.5724016018"><ele>-373.33</ele><time>2015-11-20T11:38:21Z</time></trkpt><trkpt lat="31.4671260584" lon="35.5724161863"><ele>-373.33</ele><time>2015-11-20T11:38:26Z</time></trkpt><trkpt lat="31.4671419002" lon="35.5726170167"><ele>-373.33</ele><time>2015-11-20T11:38:42Z</time></trkpt><trkpt lat="31.4671269804" lon="35.5727454275"><ele>-373.82</ele><time>2015-11-20T11:38:52Z</time></trkpt><trkpt lat="31.4669768605" lon="35.5729464255"><ele>-375.74</ele><time>2015-11-20T11:39:09Z</time></trkpt><trkpt lat="31.4669977315" lon="35.5730359443"><ele>-375.26</ele><time>2015-11-20T11:39:24Z</time></trkpt><trkpt lat="31.4669591747" lon="35.5730038416"><ele>-375.74</ele><time>2015-11-20T11:39:47Z</time></trkpt><trkpt lat="31.4668933768" lon="35.5728752632"><ele>-375.74</ele><time>2015-11-20T11:40:21Z</time></trkpt><trkpt lat="31.4669025131" lon="35.5728334375"><ele>-375.74</ele><time>2015-11-20T11:40:43Z</time></trkpt><trkpt lat="31.4669481944" lon="35.5728521291"><ele>-376.70</ele><time>2015-11-20T11:41:15Z</time></trkpt><trkpt lat="31.4669430815" lon="35.5728717428"><ele>-376.70</ele><time>2015-11-20T11:41:43Z</time></trkpt><trkpt lat="31.4669351187" lon="35.5729650334"><ele>-376.70</ele><time>2015-11-20T11:42:16Z</time></trkpt><trkpt lat="31.4669178519" lon="35.5729173403"><ele>-376.70</ele><time>2015-11-20T11:42:39Z</time></trkpt><trkpt lat="31.4669015910" lon="35.5728913564"><ele>-377.18</ele><time>2015-11-20T11:43:11Z</time></trkpt><trkpt lat="31.4668932930" lon="35.5728797056"><ele>-377.18</ele><time>2015-11-20T11:43:31Z</time></trkpt><trkpt lat="31.4668743499" lon="35.5728983972"><ele>-377.18</ele><time>2015-11-20T11:44:02Z</time></trkpt><trkpt lat="31.4669012558" lon="35.5729213636"><ele>-377.18</ele><time>2015-11-20T11:44:33Z</time></trkpt><trkpt lat="31.4669025131" lon="35.5729319248"><ele>-377.18</ele><time>2015-11-20T11:45:01Z</time></trkpt><trkpt lat="31.4669129066" lon="35.5729705654"><ele>-377.66</ele><time>2015-11-20T11:45:25Z</time></trkpt><trkpt lat="31.4669039380" lon="35.5729403906"><ele>-377.66</ele><time>2015-11-20T11:45:52Z</time></trkpt><trkpt lat="31.4669496194" lon="35.5729436595"><ele>-377.66</ele><time>2015-11-20T11:46:22Z</time></trkpt><trkpt lat="31.4669593424" lon="35.5729256384"><ele>-377.66</ele><time>2015-11-20T11:46:55Z</time></trkpt><trkpt lat="31.4669739269" lon="35.5729061924"><ele>-377.66</ele><time>2015-11-20T11:47:32Z</time></trkpt><trkpt lat="31.4669376332" lon="35.5729000736"><ele>-377.66</ele><time>2015-11-20T11:48:10Z</time></trkpt><trkpt lat="31.4669239707" lon="35.5728404783"><ele>-378.14</ele><time>2015-11-20T11:48:42Z</time></trkpt><trkpt lat="31.4669060335" lon="35.5727533065"><ele>-378.14</ele><time>2015-11-20T11:49:23Z</time></trkpt><trkpt lat="31.4669240545" lon="35.5727237184"><ele>-378.14</ele><time>2015-11-20T11:50:00Z</time></trkpt><trkpt lat="31.4668450132" lon="35.5727281608"><ele>-378.14</ele><time>2015-11-20T11:50:39Z</time></trkpt><trkpt lat="31.4668481983" lon="35.5728076212"><ele>-378.14</ele><time>2015-11-20T11:51:15Z</time></trkpt><trkpt lat="31.4668489527" lon="35.5728749279"><ele>-377.66</ele><time>2015-11-20T11:51:52Z</time></trkpt><trkpt lat="31.4668808039" lon="35.5730755068"><ele>-377.18</ele><time>2015-11-20T11:52:32Z</time></trkpt><trkpt lat="31.4668746013" lon="35.5730535462"><ele>-377.18</ele><time>2015-11-20T11:53:07Z</time></trkpt><trkpt lat="31.4668331109" lon="35.5729008280"><ele>-376.70</ele><time>2015-11-20T11:53:51Z</time></trkpt><trkpt lat="31.4668027684" lon="35.5728315096"><ele>-376.22</ele><time>2015-11-20T11:54:24Z</time></trkpt><trkpt lat="31.4668481145" lon="35.5728052743"><ele>-375.74</ele><time>2015-11-20T11:54:51Z</time></trkpt><trkpt lat="31.4670222905" lon="35.5728290789"><ele>-374.78</ele><time>2015-11-20T11:55:07Z</time></trkpt><trkpt lat="31.4671688061" lon="35.5728063639"><ele>-372.85</ele><time>2015-11-20T11:55:23Z</time></trkpt><trkpt lat="31.4672758430" lon="35.5727986526"><ele>-371.41</ele><time>2015-11-20T11:55:38Z</time></trkpt><trkpt lat="31.4673092868" lon="35.5727893487"><ele>-370.93</ele><time>2015-11-20T11:55:42Z</time></trkpt><trkpt lat="31.4673728216" lon="35.5727769434"><ele>-370.45</ele><time>2015-11-20T11:55:52Z</time></trkpt><trkpt lat="31.4674230292" lon="35.5727088824"><ele>-369.97</ele><time>2015-11-20T11:56:03Z</time></trkpt><trkpt lat="31.4673998952" lon="35.5726843234"><ele>-369.49</ele><time>2015-11-20T11:56:24Z</time></trkpt><trkpt lat="31.4673942793" lon="35.5726859160"><ele>-369.97</ele><time>2015-11-20T11:56:26Z</time></trkpt><trkpt lat="31.4673632663" lon="35.5726516340"><ele>-369.49</ele><time>2015-11-20T11:56:29Z</time></trkpt><trkpt lat="31.4673483465" lon="35.5726332776"><ele>-369.49</ele><time>2015-11-20T11:56:30Z</time></trkpt><trkpt lat="31.4673268888" lon="35.5726161785"><ele>-369.49</ele><time>2015-11-20T11:56:31Z</time></trkpt><trkpt lat="31.4672988094" lon="35.5726081319"><ele>-369.97</ele><time>2015-11-20T11:56:32Z</time></trkpt><trkpt lat="31.4672703948" lon="35.5726025160"><ele>-369.97</ele><time>2015-11-20T11:56:33Z</time></trkpt><trkpt lat="31.4672398847" lon="35.5725997500"><ele>-369.97</ele><time>2015-11-20T11:56:34Z</time></trkpt><trkpt lat="31.4672095422" lon="35.5725971516"><ele>-369.97</ele><time>2015-11-20T11:56:35Z</time></trkpt><trkpt lat="31.4671780262" lon="35.5725912843"><ele>-369.97</ele><time>2015-11-20T11:56:36Z</time></trkpt><trkpt lat="31.4671474323" lon="35.5725884344"><ele>-369.97</ele><time>2015-11-20T11:56:37Z</time></trkpt><trkpt lat="31.4664819092" lon="35.5725681502"><ele>-370.45</ele><time>2015-11-20T11:56:54Z</time></trkpt><trkpt lat="31.4656152204" lon="35.5725352094"><ele>-370.93</ele><time>2015-11-20T11:57:11Z</time></trkpt><trkpt lat="31.4644971583" lon="35.5724669807"><ele>-371.89</ele><time>2015-11-20T11:57:29Z</time></trkpt><trkpt lat="31.4634023979" lon="35.5724329501"><ele>-372.85</ele><time>2015-11-20T11:57:47Z</time></trkpt><trkpt lat="31.4625050314" lon="35.5724057928"><ele>-373.82</ele><time>2015-11-20T11:58:03Z</time></trkpt><trkpt lat="31.4616084192" lon="35.5723592732"><ele>-374.30</ele><time>2015-11-20T11:58:19Z</time></trkpt><trkpt lat="31.4606029261" lon="35.5722517334"><ele>-375.26</ele><time>2015-11-20T11:58:36Z</time></trkpt><trkpt lat="31.4596813358" lon="35.5720783118"><ele>-375.74</ele><time>2015-11-20T11:58:53Z</time></trkpt><trkpt lat="31.4587177522" lon="35.5718633998"><ele>-376.22</ele><time>2015-11-20T11:59:10Z</time></trkpt><trkpt lat="31.4575236663" lon="35.5714263674"><ele>-377.18</ele><time>2015-11-20T11:59:30Z</time></trkpt><trkpt lat="31.4566419739" lon="35.5707139056"><ele>-378.14</ele><time>2015-11-20T11:59:47Z</time></trkpt><trkpt lat="31.4557480440" lon="35.5695996154"><ele>-378.62</ele><time>2015-11-20T12:00:07Z</time></trkpt><trkpt lat="31.4548174012" lon="35.5684367940"><ele>-379.10</ele><time>2015-11-20T12:00:28Z</time></trkpt><trkpt lat="31.4539490361" lon="35.5673773214"><ele>-379.10</ele><time>2015-11-20T12:00:47Z</time></trkpt><trkpt lat="31.4531227481" lon="35.5666599981"><ele>-379.10</ele><time>2015-11-20T12:01:03Z</time></trkpt><trkpt lat="31.4520681370" lon="35.5662227981"><ele>-379.10</ele><time>2015-11-20T12:01:20Z</time></trkpt><trkpt lat="31.4509605523" lon="35.5660630390"><ele>-380.06</ele><time>2015-11-20T12:01:37Z</time></trkpt><trkpt lat="31.4496414922" lon="35.5659154337"><ele>-379.58</ele><time>2015-11-20T12:01:58Z</time></trkpt><trkpt lat="31.4484976977" lon="35.5659702513"><ele>-378.14</ele><time>2015-11-20T12:02:17Z</time></trkpt><trkpt lat="31.4473114908" lon="35.5663345288"><ele>-377.18</ele><time>2015-11-20T12:02:37Z</time></trkpt><trkpt lat="31.4463334903" lon="35.5666508619"><ele>-375.74</ele><time>2015-11-20T12:02:55Z</time></trkpt><trkpt lat="31.4452983253" lon="35.5669915024"><ele>-374.30</ele><time>2015-11-20T12:03:14Z</time></trkpt><trkpt lat="31.4442609809" lon="35.5672218371"><ele>-374.30</ele><time>2015-11-20T12:03:32Z</time></trkpt><trkpt lat="31.4428937249" lon="35.5673027225"><ele>-374.30</ele><time>2015-11-20T12:03:54Z</time></trkpt><trkpt lat="31.4413406420" lon="35.5672764871"><ele>-377.66</ele><time>2015-11-20T12:04:16Z</time></trkpt><trkpt lat="31.4402102586" lon="35.5672128685"><ele>-380.06</ele><time>2015-11-20T12:04:32Z</time></trkpt><trkpt lat="31.4401623979" lon="35.5671912432"><ele>-380.06</ele><time>2015-11-20T12:04:33Z</time></trkpt><trkpt lat="31.4401246794" lon="35.5671574641"><ele>-380.06</ele><time>2015-11-20T12:04:34Z</time></trkpt><trkpt lat="31.4400956780" lon="35.5671215896"><ele>-380.06</ele><time>2015-11-20T12:04:35Z</time></trkpt><trkpt lat="31.4400732145" lon="35.5670925044"><ele>-380.06</ele><time>2015-11-20T12:04:36Z</time></trkpt><trkpt lat="31.4400530141" lon="35.5670708790"><ele>-379.58</ele><time>2015-11-20T12:04:37Z</time></trkpt><trkpt lat="31.4400418662" lon="35.5670193303"><ele>-380.06</ele><time>2015-11-20T12:04:48Z</time></trkpt><trkpt lat="31.4400087576" lon="35.5670023989"><ele>-380.06</ele><time>2015-11-20T12:05:14Z</time></trkpt><trkpt lat="31.4400470629" lon="35.5669874791"><ele>-380.06</ele><time>2015-11-20T12:05:48Z</time></trkpt><trkpt lat="31.4400551096" lon="35.5669871438"><ele>-380.06</ele><time>2015-11-20T12:06:13Z</time></trkpt><trkpt lat="31.4400381781" lon="35.5669833720"><ele>-380.06</ele><time>2015-11-20T12:06:35Z</time></trkpt><trkpt lat="31.4400385972" lon="35.5669874791"><ele>-380.54</ele><time>2015-11-20T12:07:11Z</time></trkpt><trkpt lat="31.4400342386" lon="35.5669789296"><ele>-380.54</ele><time>2015-11-20T12:07:44Z</time></trkpt><trkpt lat="31.4400447160" lon="35.5670063384"><ele>-380.06</ele><time>2015-11-20T12:07:54Z</time></trkpt><trkpt lat="31.4400279522" lon="35.5670285504"><ele>-380.06</ele><time>2015-11-20T12:07:56Z</time></trkpt><trkpt lat="31.4400090929" lon="35.5670465715"><ele>-380.54</ele><time>2015-11-20T12:07:57Z</time></trkpt><trkpt lat="31.4399826899" lon="35.5670580547"><ele>-380.54</ele><time>2015-11-20T12:07:58Z</time></trkpt><trkpt lat="31.4399516769" lon="35.5670648441"><ele>-380.54</ele><time>2015-11-20T12:07:59Z</time></trkpt><trkpt lat="31.4399184845" lon="35.5670702923"><ele>-380.54</ele><time>2015-11-20T12:08:00Z</time></trkpt><trkpt lat="31.4394492656" lon="35.5670383573"><ele>-381.03</ele><time>2015-11-20T12:08:14Z</time></trkpt><trkpt lat="31.4385969937" lon="35.5667975452"><ele>-381.51</ele><time>2015-11-20T12:08:31Z</time></trkpt><trkpt lat="31.4374467451" lon="35.5663646199"><ele>-381.51</ele><time>2015-11-20T12:08:51Z</time></trkpt><trkpt lat="31.4363449439" lon="35.5659285933"><ele>-381.03</ele><time>2015-11-20T12:09:10Z</time></trkpt><trkpt lat="31.4353923406" lon="35.5655558500"><ele>-381.03</ele><time>2015-11-20T12:09:27Z</time></trkpt><trkpt lat="31.4353376906" lon="35.5655361526"><ele>-381.03</ele><time>2015-11-20T12:09:28Z</time></trkpt><trkpt lat="31.4343534876" lon="35.5648567993"><ele>-381.51</ele><time>2015-11-20T12:09:47Z</time></trkpt><trkpt lat="31.4336267766" lon="35.5639917031"><ele>-381.99</ele><time>2015-11-20T12:10:04Z</time></trkpt><trkpt lat="31.4327829704" lon="35.5632709432"><ele>-381.99</ele><time>2015-11-20T12:10:21Z</time></trkpt><trkpt lat="31.4317581989" lon="35.5629579630"><ele>-382.95</ele><time>2015-11-20T12:10:37Z</time></trkpt><trkpt lat="31.4308392908" lon="35.5630040634"><ele>-383.43</ele><time>2015-11-20T12:10:52Z</time></trkpt><trkpt lat="31.4300423395" lon="35.5631136149"><ele>-383.43</ele><time>2015-11-20T12:11:08Z</time></trkpt><trkpt lat="31.4289812744" lon="35.5632809177"><ele>-382.47</ele><time>2015-11-20T12:11:27Z</time></trkpt><trkpt lat="31.4280093927" lon="35.5635229871"><ele>-381.51</ele><time>2015-11-20T12:11:45Z</time></trkpt><trkpt lat="31.4269148000" lon="35.5638495460"><ele>-380.06</ele><time>2015-11-20T12:12:06Z</time></trkpt><trkpt lat="31.4258184470" lon="35.5640839878"><ele>-378.14</ele><time>2015-11-20T12:12:28Z</time></trkpt><trkpt lat="31.4250913169" lon="35.5640673917"><ele>-377.18</ele><time>2015-11-20T12:12:44Z</time></trkpt><trkpt lat="31.4242118876" lon="35.5638842471"><ele>-375.74</ele><time>2015-11-20T12:13:01Z</time></trkpt><trkpt lat="31.4239167608" lon="35.5638044514"><ele>-375.74</ele><time>2015-11-20T12:13:07Z</time></trkpt><trkpt lat="31.4232496452" lon="35.5636173673"><ele>-375.74</ele><time>2015-11-20T12:13:22Z</time></trkpt><trkpt lat="31.4225277957" lon="35.5634274334"><ele>-375.74</ele><time>2015-11-20T12:13:38Z</time></trkpt><trkpt lat="31.4222104568" lon="35.5633495655"><ele>-375.74</ele><time>2015-11-20T12:13:44Z</time></trkpt><trkpt lat="31.4211816620" lon="35.5630997010"><ele>-375.74</ele><time>2015-11-20T12:14:02Z</time></trkpt><trkpt lat="31.4208285324" lon="35.5630333163"><ele>-375.74</ele><time>2015-11-20T12:14:10Z</time></trkpt><trkpt lat="31.4207834378" lon="35.5630298797"><ele>-375.74</ele><time>2015-11-20T12:14:11Z</time></trkpt><trkpt lat="31.4198511187" lon="35.5630192347"><ele>-376.22</ele><time>2015-11-20T12:14:30Z</time></trkpt><trkpt lat="31.4184627403" lon="35.5629942566"><ele>-376.22</ele><time>2015-11-20T12:14:55Z</time></trkpt><trkpt lat="31.4174059499" lon="35.5630104337"><ele>-375.74</ele><time>2015-11-20T12:15:14Z</time></trkpt><trkpt lat="31.4164991118" lon="35.5630148761"><ele>-375.26</ele><time>2015-11-20T12:15:31Z</time></trkpt><trkpt lat="31.4154507034" lon="35.5630027223"><ele>-374.78</ele><time>2015-11-20T12:15:51Z</time></trkpt><trkpt lat="31.4145016205" lon="35.5630214140"><ele>-374.30</ele><time>2015-11-20T12:16:09Z</time></trkpt><trkpt lat="31.4139739797" lon="35.5630064942"><ele>-373.82</ele><time>2015-11-20T12:16:19Z</time></trkpt><trkpt lat="31.4130132459" lon="35.5629842822"><ele>-373.82</ele><time>2015-11-20T12:16:36Z</time></trkpt><trkpt lat="31.4118790906" lon="35.5628523510"><ele>-372.85</ele><time>2015-11-20T12:16:56Z</time></trkpt><trkpt lat="31.4108434226" lon="35.5626694579"><ele>-372.37</ele><time>2015-11-20T12:17:14Z</time></trkpt><trkpt lat="31.4096887317" lon="35.5623952858"><ele>-371.89</ele><time>2015-11-20T12:17:34Z</time></trkpt><trkpt lat="31.4086249005" lon="35.5620944593"><ele>-370.93</ele><time>2015-11-20T12:17:53Z</time></trkpt><trkpt lat="31.4075647574" lon="35.5617670622"><ele>-369.97</ele><time>2015-11-20T12:18:13Z</time></trkpt><trkpt lat="31.4065102302" lon="35.5614340492"><ele>-369.01</ele><time>2015-11-20T12:18:34Z</time></trkpt><trkpt lat="31.4064128324" lon="35.5614003539"><ele>-369.01</ele><time>2015-11-20T12:18:36Z</time></trkpt><trkpt lat="31.4056627359" lon="35.5611316301"><ele>-368.05</ele><time>2015-11-20T12:18:51Z</time></trkpt><trkpt lat="31.4051754121" lon="35.5608672649"><ele>-367.09</ele><time>2015-11-20T12:19:01Z</time></trkpt><trkpt lat="31.4044021815" lon="35.5602402147"><ele>-366.12</ele><time>2015-11-20T12:19:18Z</time></trkpt><trkpt lat="31.4037390891" lon="35.5594509747"><ele>-364.68</ele><time>2015-11-20T12:19:35Z</time></trkpt><trkpt lat="31.4031206723" lon="35.5585327372"><ele>-363.24</ele><time>2015-11-20T12:19:53Z</time></trkpt><trkpt lat="31.4026211947" lon="35.5577782821"><ele>-362.28</ele><time>2015-11-20T12:20:08Z</time></trkpt><trkpt lat="31.4020536561" lon="35.5569356494"><ele>-360.84</ele><time>2015-11-20T12:20:25Z</time></trkpt><trkpt lat="31.4014765620" lon="35.5560863111"><ele>-360.36</ele><time>2015-11-20T12:20:42Z</time></trkpt><trkpt lat="31.4011465665" lon="35.5556343589"><ele>-359.88</ele><time>2015-11-20T12:20:51Z</time></trkpt><trkpt lat="31.4004277345" lon="35.5548169557"><ele>-358.92</ele><time>2015-11-20T12:21:08Z</time></trkpt><trkpt lat="31.3997789752" lon="35.5542685278"><ele>-358.43</ele><time>2015-11-20T12:21:23Z</time></trkpt><trkpt lat="31.3989477418" lon="35.5537655298"><ele>-357.95</ele><time>2015-11-20T12:21:40Z</time></trkpt><trkpt lat="31.3978368044" lon="35.5532033555"><ele>-357.47</ele><time>2015-11-20T12:22:00Z</time></trkpt><trkpt lat="31.3965022378" lon="35.5525614694"><ele>-356.03</ele><time>2015-11-20T12:22:23Z</time></trkpt><trkpt lat="31.3954236545" lon="35.5521691125"><ele>-355.55</ele><time>2015-11-20T12:22:41Z</time></trkpt><trkpt lat="31.3945017289" lon="35.5519655999"><ele>-355.07</ele><time>2015-11-20T12:22:56Z</time></trkpt><trkpt lat="31.3932472933" lon="35.5518493429"><ele>-356.03</ele><time>2015-11-20T12:23:16Z</time></trkpt><trkpt lat="31.3920704741" lon="35.5518759135"><ele>-357.47</ele><time>2015-11-20T12:23:34Z</time></trkpt><trkpt lat="31.3909814972" lon="35.5519166496"><ele>-359.40</ele><time>2015-11-20T12:23:49Z</time></trkpt><trkpt lat="31.3897569850" lon="35.5519719701"><ele>-362.76</ele><time>2015-11-20T12:24:05Z</time></trkpt><trkpt lat="31.3888458721" lon="35.5519957747"><ele>-366.12</ele><time>2015-11-20T12:24:16Z</time></trkpt><trkpt lat="31.3879646827" lon="35.5520260334"><ele>-369.01</ele><time>2015-11-20T12:24:26Z</time></trkpt><trkpt lat="31.3871081360" lon="35.5520674400"><ele>-372.37</ele><time>2015-11-20T12:24:35Z</time></trkpt><trkpt lat="31.3868109975" lon="35.5520781688"><ele>-373.82</ele><time>2015-11-20T12:24:38Z</time></trkpt><trkpt lat="31.3863113523" lon="35.5520971119"><ele>-375.26</ele><time>2015-11-20T12:24:43Z</time></trkpt><trkpt lat="31.3852637820" lon="35.5520588905"><ele>-378.62</ele><time>2015-11-20T12:24:53Z</time></trkpt><trkpt lat="31.3837977033" lon="35.5517133046"><ele>-380.54</ele><time>2015-11-20T12:25:08Z</time></trkpt><trkpt lat="31.3825873565" lon="35.5514159147"><ele>-380.06</ele><time>2015-11-20T12:25:23Z</time></trkpt><trkpt lat="31.3814494293" lon="35.5513191037"><ele>-379.10</ele><time>2015-11-20T12:25:40Z</time></trkpt><trkpt lat="31.3804214727" lon="35.5513416510"><ele>-379.10</ele><time>2015-11-20T12:25:57Z</time></trkpt><trkpt lat="31.3794391975" lon="35.5513047706"><ele>-379.10</ele><time>2015-11-20T12:26:13Z</time></trkpt><trkpt lat="31.3783601113" lon="35.5510875955"><ele>-379.10</ele><time>2015-11-20T12:26:31Z</time></trkpt><trkpt lat="31.3773003872" lon="35.5507876072"><ele>-379.10</ele><time>2015-11-20T12:26:49Z</time></trkpt><trkpt lat="31.3760092389" lon="35.5504064821"><ele>-380.54</ele><time>2015-11-20T12:27:08Z</time></trkpt><trkpt lat="31.3747665379" lon="35.5498872232"><ele>-381.99</ele><time>2015-11-20T12:27:26Z</time></trkpt><trkpt lat="31.3738666568" lon="35.5493729096"><ele>-381.99</ele><time>2015-11-20T12:27:42Z</time></trkpt><trkpt lat="31.3732359186" lon="35.5489383079"><ele>-381.51</ele><time>2015-11-20T12:27:58Z</time></trkpt><trkpt lat="31.3729390316" lon="35.5487442669"><ele>-381.03</ele><time>2015-11-20T12:28:11Z</time></trkpt><trkpt lat="31.3726934418" lon="35.5485855974"><ele>-380.54</ele><time>2015-11-20T12:28:23Z</time></trkpt><trkpt lat="31.3726753369" lon="35.5485493876"><ele>-381.03</ele><time>2015-11-20T12:28:38Z</time></trkpt><trkpt lat="31.3727029972" lon="35.5485301092"><ele>-381.03</ele><time>2015-11-20T12:28:52Z</time></trkpt><trkpt lat="31.3727033325" lon="35.5484768003"><ele>-382.47</ele><time>2015-11-20T12:29:07Z</time></trkpt><trkpt lat="31.3726988062" lon="35.5484323762"><ele>-383.91</ele><time>2015-11-20T12:29:21Z</time></trkpt><trkpt lat="31.3726913463" lon="35.5484287720"><ele>-384.87</ele><time>2015-11-20T12:29:44Z</time></trkpt><trkpt lat="31.3726939447" lon="35.5484025367"><ele>-384.87</ele><time>2015-11-20T12:30:05Z</time></trkpt><trkpt lat="31.3726884127" lon="35.5483497307"><ele>-386.31</ele><time>2015-11-20T12:30:14Z</time></trkpt><trkpt lat="31.3726050965" lon="35.5482559372"><ele>-386.79</ele><time>2015-11-20T12:30:28Z</time></trkpt><trkpt lat="31.3725035079" lon="35.5481317174"><ele>-388.24</ele><time>2015-11-20T12:30:46Z</time></trkpt><trkpt lat="31.3724345248" lon="35.5480318051"><ele>-389.68</ele><time>2015-11-20T12:31:02Z</time></trkpt><trkpt lat="31.3724358659" lon="35.5480171368"><ele>-389.68</ele><time>2015-11-20T12:31:17Z</time></trkpt><trkpt lat="31.3724396378" lon="35.5480097607"><ele>-390.16</ele><time>2015-11-20T12:31:43Z</time></trkpt><trkpt lat="31.3724398054" lon="35.5480162986"><ele>-389.68</ele><time>2015-11-20T12:32:06Z</time></trkpt><trkpt lat="31.3724180125" lon="35.5480049830"><ele>-390.16</ele><time>2015-11-20T12:32:49Z</time></trkpt><trkpt lat="31.3724217843" lon="35.5480065756"><ele>-390.16</ele><time>2015-11-20T12:33:21Z</time></trkpt><trkpt lat="31.3724278193" lon="35.5480122752"><ele>-390.64</ele><time>2015-11-20T12:34:06Z</time></trkpt><trkpt lat="31.3724226225" lon="35.5479968525"><ele>-390.16</ele><time>2015-11-20T12:34:58Z</time></trkpt><trkpt lat="31.3724164199" lon="35.5480025522"><ele>-390.16</ele><time>2015-11-20T12:35:49Z</time></trkpt><trkpt lat="31.3724253885" lon="35.5480127782"><ele>-390.16</ele><time>2015-11-20T12:36:26Z</time></trkpt><trkpt lat="31.3724277355" lon="35.5480049830"><ele>-390.16</ele><time>2015-11-20T12:37:14Z</time></trkpt><trkpt lat="31.3724419009" lon="35.5480053183"><ele>-389.68</ele><time>2015-11-20T12:38:05Z</time></trkpt><trkpt lat="31.3724325132" lon="35.5480074976"><ele>-389.68</ele><time>2015-11-20T12:39:01Z</time></trkpt><trkpt lat="31.3724180963" lon="35.5479995348"><ele>-390.16</ele><time>2015-11-20T12:39:50Z</time></trkpt><trkpt lat="31.3724282384" lon="35.5480015464"><ele>-389.68</ele><time>2015-11-20T12:40:43Z</time></trkpt><trkpt lat="31.3724185992" lon="35.5480060726"><ele>-390.16</ele><time>2015-11-20T12:41:30Z</time></trkpt><trkpt lat="31.3724162523" lon="35.5480025522"><ele>-390.16</ele><time>2015-11-20T12:42:15Z</time></trkpt><trkpt lat="31.3724057749" lon="35.5480095930"><ele>-390.16</ele><time>2015-11-20T12:42:51Z</time></trkpt><trkpt lat="31.3724196050" lon="35.5480007920"><ele>-390.16</ele><time>2015-11-20T12:43:26Z</time></trkpt><trkpt lat="31.3724203594" lon="35.5480033066"><ele>-390.16</ele><time>2015-11-20T12:43:51Z</time></trkpt><trkpt lat="31.3724206947" lon="35.5480071623"><ele>-390.16</ele><time>2015-11-20T12:44:24Z</time></trkpt><trkpt lat="31.3724116422" lon="35.5480087548"><ele>-390.16</ele><time>2015-11-20T12:45:03Z</time></trkpt><trkpt lat="31.3724258915" lon="35.5480090063"><ele>-390.16</ele><time>2015-11-20T12:45:43Z</time></trkpt><trkpt lat="31.3724237960" lon="35.5480095092"><ele>-390.16</ele><time>2015-11-20T12:46:24Z</time></trkpt><trkpt lat="31.3724253885" lon="35.5480035581"><ele>-390.16</ele><time>2015-11-20T12:47:05Z</time></trkpt><trkpt lat="31.3724251371" lon="35.5480027199"><ele>-390.16</ele><time>2015-11-20T12:47:40Z</time></trkpt><trkpt lat="31.3724305853" lon="35.5480033066"><ele>-390.16</ele><time>2015-11-20T12:48:09Z</time></trkpt><trkpt lat="31.3724336028" lon="35.5479827709"><ele>-390.16</ele><time>2015-11-20T12:48:44Z</time></trkpt><trkpt lat="31.3724225387" lon="35.5479883030"><ele>-390.16</ele><time>2015-11-20T12:49:31Z</time></trkpt><trkpt lat="31.3724267296" lon="35.5479945894"><ele>-390.16</ele><time>2015-11-20T12:50:01Z</time></trkpt><trkpt lat="31.3724108040" lon="35.5479910690"><ele>-390.16</ele><time>2015-11-20T12:50:43Z</time></trkpt><trkpt lat="31.3724258915" lon="35.5480045639"><ele>-389.68</ele><time>2015-11-20T12:51:15Z</time></trkpt><trkpt lat="31.3724160008" lon="35.5479979422"><ele>-390.16</ele><time>2015-11-20T12:51:52Z</time></trkpt><trkpt lat="31.3724212814" lon="35.5479898117"><ele>-390.16</ele><time>2015-11-20T12:52:23Z</time></trkpt><trkpt lat="31.3724271487" lon="35.5479874648"><ele>-390.16</ele><time>2015-11-20T12:52:53Z</time></trkpt><trkpt lat="31.3724449184" lon="35.5479940865"><ele>-389.68</ele><time>2015-11-20T12:53:32Z</time></trkpt><trkpt lat="31.3724433258" lon="35.5479971878"><ele>-389.68</ele><time>2015-11-20T12:54:02Z</time></trkpt><trkpt lat="31.3724574074" lon="35.5479940027"><ele>-390.16</ele><time>2015-11-20T12:54:41Z</time></trkpt><trkpt lat="31.3724437449" lon="35.5479865428"><ele>-390.16</ele><time>2015-11-20T12:55:16Z</time></trkpt><trkpt lat="31.3724463433" lon="35.5480044801"><ele>-389.68</ele><time>2015-11-20T12:55:54Z</time></trkpt><trkpt lat="31.3724416494" lon="35.5480027199"><ele>-389.68</ele><time>2015-11-20T12:56:24Z</time></trkpt><trkpt lat="31.3724464271" lon="35.5479958467"><ele>-390.16</ele><time>2015-11-20T12:56:52Z</time></trkpt><trkpt lat="31.3724438287" lon="35.5479986966"><ele>-390.16</ele><time>2015-11-20T12:57:32Z</time></trkpt><trkpt lat="31.3724410627" lon="35.5480097607"><ele>-390.16</ele><time>2015-11-20T12:58:04Z</time></trkpt><trkpt lat="31.3724607602" lon="35.5480169691"><ele>-390.16</ele><time>2015-11-20T12:58:41Z</time></trkpt><trkpt lat="31.3724570721" lon="35.5480166338"><ele>-390.64</ele><time>2015-11-20T12:59:09Z</time></trkpt><trkpt lat="31.3724589162" lon="35.5480250157"><ele>-390.64</ele><time>2015-11-20T12:59:41Z</time></trkpt><trkpt lat="31.3724518754" lon="35.5480224174"><ele>-390.64</ele><time>2015-11-20T13:00:20Z</time></trkpt><trkpt lat="31.3724456728" lon="35.5480156280"><ele>-390.64</ele><time>2015-11-20T13:00:54Z</time></trkpt><trkpt lat="31.3724519592" lon="35.5480313860"><ele>-391.12</ele><time>2015-11-20T13:01:25Z</time></trkpt><trkpt lat="31.3724591676" lon="35.5480193999"><ele>-391.12</ele><time>2015-11-20T13:01:55Z</time></trkpt><trkpt lat="31.3724562339" lon="35.5480235908"><ele>-391.12</ele><time>2015-11-20T13:02:29Z</time></trkpt><trkpt lat="31.3724575751" lon="35.5480222497"><ele>-391.12</ele><time>2015-11-20T13:03:08Z</time></trkpt><trkpt lat="31.3724538032" lon="35.5480243452"><ele>-391.12</ele><time>2015-11-20T13:03:43Z</time></trkpt><trkpt lat="31.3724703994" lon="35.5480278656"><ele>-391.60</ele><time>2015-11-20T13:04:20Z</time></trkpt><trkpt lat="31.3724574912" lon="35.5480247643"><ele>-391.60</ele><time>2015-11-20T13:04:57Z</time></trkpt><trkpt lat="31.3724583294" lon="35.5480126105"><ele>-391.60</ele><time>2015-11-20T13:05:36Z</time></trkpt><trkpt lat="31.3724512048" lon="35.5480115209"><ele>-391.60</ele><time>2015-11-20T13:06:16Z</time></trkpt><trkpt lat="31.3724574074" lon="35.5480126105"><ele>-391.60</ele><time>2015-11-20T13:06:54Z</time></trkpt><trkpt lat="31.3724636100" lon="35.5480175558"><ele>-391.60</ele><time>2015-11-20T13:07:33Z</time></trkpt><trkpt lat="31.3724492770" lon="35.5480166338"><ele>-391.60</ele><time>2015-11-20T13:08:12Z</time></trkpt><trkpt lat="31.3724379614" lon="35.5480111856"><ele>-391.60</ele><time>2015-11-20T13:08:54Z</time></trkpt><trkpt lat="31.3724427391" lon="35.5480012111"><ele>-391.60</ele><time>2015-11-20T13:09:39Z</time></trkpt><trkpt lat="31.3724472653" lon="35.5480074976"><ele>-391.60</ele><time>2015-11-20T13:10:18Z</time></trkpt><trkpt lat="31.3724350277" lon="35.5480043963"><ele>-391.60</ele><time>2015-11-20T13:11:07Z</time></trkpt><trkpt lat="31.3724448346" lon="35.5479989480"><ele>-391.60</ele><time>2015-11-20T13:11:41Z</time></trkpt><trkpt lat="31.3724522945" lon="35.5480079167"><ele>-391.60</ele><time>2015-11-20T13:12:23Z</time></trkpt><trkpt lat="31.3724502828" lon="35.5479960144"><ele>-391.60</ele><time>2015-11-20T13:13:10Z</time></trkpt><trkpt lat="31.3724352792" lon="35.5480021331"><ele>-391.60</ele><time>2015-11-20T13:13:54Z</time></trkpt><trkpt lat="31.3724475168" lon="35.5479982775"><ele>-391.60</ele><time>2015-11-20T13:14:36Z</time></trkpt><trkpt lat="31.3724536356" lon="35.5479924101"><ele>-392.08</ele><time>2015-11-20T13:15:19Z</time></trkpt><trkpt lat="31.3724636938" lon="35.5479942542"><ele>-392.08</ele><time>2015-11-20T13:15:56Z</time></trkpt><trkpt lat="31.3724562339" lon="35.5479918234"><ele>-392.08</ele><time>2015-11-20T13:16:38Z</time></trkpt><trkpt lat="31.3724521268" lon="35.5479965173"><ele>-392.08</ele><time>2015-11-20T13:17:19Z</time></trkpt><trkpt lat="31.3724472653" lon="35.5480017141"><ele>-392.56</ele><time>2015-11-20T13:17:57Z</time></trkpt><trkpt lat="31.3724530488" lon="35.5479859561"><ele>-392.56</ele><time>2015-11-20T13:18:40Z</time></trkpt><trkpt lat="31.3724476006" lon="35.5479924101"><ele>-392.56</ele><time>2015-11-20T13:19:25Z</time></trkpt><trkpt lat="31.3724526297" lon="35.5479900632"><ele>-392.56</ele><time>2015-11-20T13:20:01Z</time></trkpt><trkpt lat="31.3724465109" lon="35.5479950923"><ele>-392.56</ele><time>2015-11-20T13:20:47Z</time></trkpt><trkpt lat="31.3724591676" lon="35.5479866266"><ele>-392.56</ele><time>2015-11-20T13:21:32Z</time></trkpt><trkpt lat="31.3724644482" lon="35.5479874648"><ele>-393.04</ele><time>2015-11-20T13:22:17Z</time></trkpt><trkpt lat="31.3724520430" lon="35.5479837768"><ele>-392.56</ele><time>2015-11-20T13:22:48Z</time></trkpt><trkpt lat="31.3724554796" lon="35.5479903147"><ele>-392.56</ele><time>2015-11-20T13:23:26Z</time></trkpt><trkpt lat="31.3724586647" lon="35.5479924940"><ele>-393.04</ele><time>2015-11-20T13:24:02Z</time></trkpt><trkpt lat="31.3724597543" lon="35.5479871295"><ele>-393.04</ele><time>2015-11-20T13:24:42Z</time></trkpt><trkpt lat="31.3724573236" lon="35.5479847826"><ele>-393.04</ele><time>2015-11-20T13:25:15Z</time></trkpt><trkpt lat="31.3724539708" lon="35.5479831900"><ele>-393.04</ele><time>2015-11-20T13:25:44Z</time></trkpt><trkpt lat="31.3724658731" lon="35.5479781609"><ele>-393.04</ele><time>2015-11-20T13:26:12Z</time></trkpt><trkpt lat="31.3724621013" lon="35.5479831900"><ele>-393.04</ele><time>2015-11-20T13:26:44Z</time></trkpt><trkpt lat="31.3724582456" lon="35.5479790829"><ele>-393.52</ele><time>2015-11-20T13:27:20Z</time></trkpt><trkpt lat="31.3724557310" lon="35.5479849502"><ele>-393.04</ele><time>2015-11-20T13:27:49Z</time></trkpt><trkpt lat="31.3724678848" lon="35.5479878001"><ele>-393.52</ele><time>2015-11-20T13:28:20Z</time></trkpt><trkpt lat="31.3724703994" lon="35.5479883868"><ele>-393.52</ele><time>2015-11-20T13:28:53Z</time></trkpt><trkpt lat="31.3724662922" lon="35.5479808431"><ele>-393.52</ele><time>2015-11-20T13:29:26Z</time></trkpt><trkpt lat="31.3724560663" lon="35.5479748081"><ele>-393.52</ele><time>2015-11-20T13:30:00Z</time></trkpt><trkpt lat="31.3724554796" lon="35.5479848664"><ele>-393.52</ele><time>2015-11-20T13:30:40Z</time></trkpt><trkpt lat="31.3724434935" lon="35.5480331462"><ele>-393.04</ele><time>2015-11-20T13:31:03Z</time></trkpt><trkpt lat="31.3724976406" lon="35.5481393449"><ele>-392.08</ele><time>2015-11-20T13:31:20Z</time></trkpt><trkpt lat="31.3725737482" lon="35.5482058972"><ele>-391.12</ele><time>2015-11-20T13:31:37Z</time></trkpt><trkpt lat="31.3726124726" lon="35.5482354015"><ele>-391.12</ele><time>2015-11-20T13:31:42Z</time></trkpt><trkpt lat="31.3726673741" lon="35.5483005289"><ele>-391.60</ele><time>2015-11-20T13:31:59Z</time></trkpt><trkpt lat="31.3727034163" lon="35.5483379122"><ele>-390.64</ele><time>2015-11-20T13:32:14Z</time></trkpt><trkpt lat="31.3727046736" lon="35.5483643152"><ele>-390.16</ele><time>2015-11-20T13:32:29Z</time></trkpt><trkpt lat="31.3727029134" lon="35.5484002735"><ele>-389.20</ele><time>2015-11-20T13:32:46Z</time></trkpt><trkpt lat="31.3727000635" lon="35.5484428536"><ele>-388.24</ele><time>2015-11-20T13:33:01Z</time></trkpt><trkpt lat="31.3727265503" lon="35.5484736152"><ele>-386.79</ele><time>2015-11-20T13:33:15Z</time></trkpt><trkpt lat="31.3727528695" lon="35.5485308636"><ele>-386.31</ele><time>2015-11-20T13:33:24Z</time></trkpt><trkpt lat="31.3727462478" lon="35.5485626310"><ele>-385.83</ele><time>2015-11-20T13:33:28Z</time></trkpt><trkpt lat="31.3727232814" lon="35.5485937279"><ele>-385.83</ele><time>2015-11-20T13:33:32Z</time></trkpt><trkpt lat="31.3726424798" lon="35.5486207176"><ele>-385.35</ele><time>2015-11-20T13:33:45Z</time></trkpt><trkpt lat="31.3725719042" lon="35.5485995952"><ele>-385.35</ele><time>2015-11-20T13:33:50Z</time></trkpt><trkpt lat="31.3725513685" lon="35.5485907104"><ele>-385.35</ele><time>2015-11-20T13:33:51Z</time></trkpt><trkpt lat="31.3725308329" lon="35.5485806521"><ele>-385.35</ele><time>2015-11-20T13:33:52Z</time></trkpt><trkpt lat="31.3725088723" lon="35.5485673249"><ele>-385.35</ele><time>2015-11-20T13:33:53Z</time></trkpt><trkpt lat="31.3720041141" lon="35.5482907221"><ele>-384.39</ele><time>2015-11-20T13:34:08Z</time></trkpt><trkpt lat="31.3713110145" lon="35.5478812661"><ele>-382.47</ele><time>2015-11-20T13:34:26Z</time></trkpt><trkpt lat="31.3706663623" lon="35.5475363508"><ele>-380.06</ele><time>2015-11-20T13:34:43Z</time></trkpt><trkpt lat="31.3698085584" lon="35.5471813772"><ele>-377.66</ele><time>2015-11-20T13:35:04Z</time></trkpt><trkpt lat="31.3689200766" lon="35.5469362065"><ele>-377.66</ele><time>2015-11-20T13:35:24Z</time></trkpt><trkpt lat="31.3679565769" lon="35.5467849970"><ele>-378.62</ele><time>2015-11-20T13:35:42Z</time></trkpt><trkpt lat="31.3668805920" lon="35.5467528943"><ele>-381.03</ele><time>2015-11-20T13:35:59Z</time></trkpt><trkpt lat="31.3656599354" lon="35.5468961410"><ele>-383.91</ele><time>2015-11-20T13:36:17Z</time></trkpt><trkpt lat="31.3653642219" lon="35.5469449237"><ele>-384.39</ele><time>2015-11-20T13:36:21Z</time></trkpt><trkpt lat="31.3642508537" lon="35.5471413117"><ele>-386.31</ele><time>2015-11-20T13:36:36Z</time></trkpt><trkpt lat="31.3631773833" lon="35.5473199300"><ele>-387.75</ele><time>2015-11-20T13:36:50Z</time></trkpt><trkpt lat="31.3618548866" lon="35.5475478340"><ele>-387.75</ele><time>2015-11-20T13:37:08Z</time></trkpt><trkpt lat="31.3601661846" lon="35.5478272866"><ele>-387.27</ele><time>2015-11-20T13:37:33Z</time></trkpt><trkpt lat="31.3588428497" lon="35.5480188131"><ele>-387.75</ele><time>2015-11-20T13:37:54Z</time></trkpt><trkpt lat="31.3574308343" lon="35.5480540171"><ele>-386.79</ele><time>2015-11-20T13:38:16Z</time></trkpt><trkpt lat="31.3558554556" lon="35.5479053222"><ele>-387.27</ele><time>2015-11-20T13:38:40Z</time></trkpt><trkpt lat="31.3545941468" lon="35.5478466488"><ele>-387.75</ele><time>2015-11-20T13:38:59Z</time></trkpt><trkpt lat="31.3532054331" lon="35.5478770752"><ele>-388.72</ele><time>2015-11-20T13:39:19Z</time></trkpt><trkpt lat="31.3520522509" lon="35.5478992872"><ele>-389.20</ele><time>2015-11-20T13:39:36Z</time></trkpt><trkpt lat="31.3511019945" lon="35.5478980299"><ele>-387.75</ele><time>2015-11-20T13:39:51Z</time></trkpt><trkpt lat="31.3499658275" lon="35.5478805117"><ele>-386.31</ele><time>2015-11-20T13:40:11Z</time></trkpt><trkpt lat="31.3489968795" lon="35.5478318129"><ele>-384.39</ele><time>2015-11-20T13:40:29Z</time></trkpt><trkpt lat="31.3481275085" lon="35.5477737263"><ele>-381.51</ele><time>2015-11-20T13:40:47Z</time></trkpt><trkpt lat="31.3473098539" lon="35.5477092694"><ele>-379.10</ele><time>2015-11-20T13:41:04Z</time></trkpt><trkpt lat="31.3463374693" lon="35.5476186611"><ele>-378.62</ele><time>2015-11-20T13:41:23Z</time></trkpt><trkpt lat="31.3453310542" lon="35.5475303158"><ele>-379.10</ele><time>2015-11-20T13:41:41Z</time></trkpt><trkpt lat="31.3441654667" lon="35.5476051662"><ele>-381.51</ele><time>2015-11-20T13:41:59Z</time></trkpt><trkpt lat="31.3430059981" lon="35.5478162225"><ele>-383.91</ele><time>2015-11-20T13:42:15Z</time></trkpt><trkpt lat="31.3414111733" lon="35.5482134409"><ele>-386.31</ele><time>2015-11-20T13:42:35Z</time></trkpt><trkpt lat="31.3401436619" lon="35.5484098289"><ele>-387.27</ele><time>2015-11-20T13:42:51Z</time></trkpt><trkpt lat="31.3387565408" lon="35.5484245811"><ele>-387.75</ele><time>2015-11-20T13:43:10Z</time></trkpt><trkpt lat="31.3378508762" lon="35.5483004451"><ele>-388.24</ele><time>2015-11-20T13:43:24Z</time></trkpt><trkpt lat="31.3364619110" lon="35.5480289552"><ele>-388.72</ele><time>2015-11-20T13:43:46Z</time></trkpt><trkpt lat="31.3354847487" lon="35.5479748920"><ele>-388.72</ele><time>2015-11-20T13:44:01Z</time></trkpt><trkpt lat="31.3343959395" lon="35.5481199827"><ele>-389.20</ele><time>2015-11-20T13:44:18Z</time></trkpt><trkpt lat="31.3339754194" lon="35.5481141154"><ele>-388.72</ele><time>2015-11-20T13:44:25Z</time></trkpt><trkpt lat="31.3339238707" lon="35.5481136963"><ele>-388.24</ele><time>2015-11-20T13:44:26Z</time></trkpt><trkpt lat="31.3338744175" lon="35.5481091700"><ele>-388.72</ele><time>2015-11-20T13:44:27Z</time></trkpt><trkpt lat="31.3330470398" lon="35.5478870496"><ele>-386.31</ele><time>2015-11-20T13:44:45Z</time></trkpt><trkpt lat="31.3330033701" lon="35.5478691123"><ele>-386.31</ele><time>2015-11-20T13:44:46Z</time></trkpt><trkpt lat="31.3329617959" lon="35.5478476547"><ele>-385.83</ele><time>2015-11-20T13:44:47Z</time></trkpt><trkpt lat="31.3323691953" lon="35.5474825390"><ele>-383.43</ele><time>2015-11-20T13:45:02Z</time></trkpt><trkpt lat="31.3317386247" lon="35.5468466040"><ele>-381.51</ele><time>2015-11-20T13:45:20Z</time></trkpt><trkpt lat="31.3310808130" lon="35.5460702721"><ele>-380.06</ele><time>2015-11-20T13:45:40Z</time></trkpt><trkpt lat="31.3304211572" lon="35.5454801023"><ele>-381.03</ele><time>2015-11-20T13:45:55Z</time></trkpt><trkpt lat="31.3294418156" lon="35.5449583288"><ele>-383.91</ele><time>2015-11-20T13:46:10Z</time></trkpt><trkpt lat="31.3284083270" lon="35.5447063688"><ele>-386.79</ele><time>2015-11-20T13:46:22Z</time></trkpt><trkpt lat="31.3272686396" lon="35.5446808878"><ele>-389.68</ele><time>2015-11-20T13:46:34Z</time></trkpt><trkpt lat="31.3256006408" lon="35.5447186902"><ele>-392.08</ele><time>2015-11-20T13:46:52Z</time></trkpt><trkpt lat="31.3243369013" lon="35.5447600968"><ele>-392.08</ele><time>2015-11-20T13:47:07Z</time></trkpt><trkpt lat="31.3229310885" lon="35.5447934568"><ele>-391.60</ele><time>2015-11-20T13:47:26Z</time></trkpt><trkpt lat="31.3219094183" lon="35.5448003300"><ele>-391.12</ele><time>2015-11-20T13:47:41Z</time></trkpt><trkpt lat="31.3205613568" lon="35.5447204504"><ele>-391.12</ele><time>2015-11-20T13:48:00Z</time></trkpt><trkpt lat="31.3195419498" lon="35.5445252359"><ele>-390.16</ele><time>2015-11-20T13:48:15Z</time></trkpt><trkpt lat="31.3187191822" lon="35.5442400835"><ele>-388.24</ele><time>2015-11-20T13:48:29Z</time></trkpt><trkpt lat="31.3178266771" lon="35.5438177194"><ele>-385.35</ele><time>2015-11-20T13:48:46Z</time></trkpt><trkpt lat="31.3172065001" lon="35.5434619077"><ele>-382.47</ele><time>2015-11-20T13:49:00Z</time></trkpt><trkpt lat="31.3167140633" lon="35.5431154836"><ele>-379.10</ele><time>2015-11-20T13:49:14Z</time></trkpt><trkpt lat="31.3162316009" lon="35.5427554809"><ele>-376.70</ele><time>2015-11-20T13:49:30Z</time></trkpt><trkpt lat="31.3158093207" lon="35.5424756091"><ele>-374.30</ele><time>2015-11-20T13:49:44Z</time></trkpt><trkpt lat="31.3152443804" lon="35.5420705117"><ele>-371.41</ele><time>2015-11-20T13:50:03Z</time></trkpt><trkpt lat="31.3147111237" lon="35.5417142808"><ele>-368.53</ele><time>2015-11-20T13:50:21Z</time></trkpt><trkpt lat="31.3143031765" lon="35.5414279550"><ele>-366.12</ele><time>2015-11-20T13:50:35Z</time></trkpt><trkpt lat="31.3139192853" lon="35.5411604047"><ele>-364.20</ele><time>2015-11-20T13:50:48Z</time></trkpt><trkpt lat="31.3134076539" lon="35.5408111308"><ele>-360.84</ele><time>2015-11-20T13:51:05Z</time></trkpt><trkpt lat="31.3130560331" lon="35.5405697320"><ele>-358.92</ele><time>2015-11-20T13:51:18Z</time></trkpt><trkpt lat="31.3124884106" lon="35.5401728489"><ele>-356.51</ele><time>2015-11-20T13:51:37Z</time></trkpt><trkpt lat="31.3118860871" lon="35.5397524964"><ele>-354.59</ele><time>2015-11-20T13:51:56Z</time></trkpt><trkpt lat="31.3113220688" lon="35.5393524282"><ele>-352.67</ele><time>2015-11-20T13:52:15Z</time></trkpt><trkpt lat="31.3108058274" lon="35.5389990471"><ele>-352.19</ele><time>2015-11-20T13:52:32Z</time></trkpt><trkpt lat="31.3106781710" lon="35.5389136355"><ele>-352.19</ele><time>2015-11-20T13:52:43Z</time></trkpt><trkpt lat="31.3107166439" lon="35.5388967879"><ele>-352.19</ele><time>2015-11-20T13:53:14Z</time></trkpt><trkpt lat="31.3107145485" lon="35.5388930161"><ele>-352.67</ele><time>2015-11-20T13:53:49Z</time></trkpt><trkpt lat="31.3106681127" lon="35.5388745759"><ele>-352.67</ele><time>2015-11-20T13:54:14Z</time></trkpt><trkpt lat="31.3103163242" lon="35.5386482645"><ele>-352.19</ele><time>2015-11-20T13:54:27Z</time></trkpt><trkpt lat="31.3096510526" lon="35.5381914508"><ele>-352.67</ele><time>2015-11-20T13:54:44Z</time></trkpt><trkpt lat="31.3094845880" lon="35.5380818993"><ele>-352.67</ele><time>2015-11-20T13:54:48Z</time></trkpt><trkpt lat="31.3087002095" lon="35.5375286937"><ele>-354.11</ele><time>2015-11-20T13:55:04Z</time></trkpt><trkpt lat="31.3078081235" lon="35.5369748175"><ele>-355.55</ele><time>2015-11-20T13:55:20Z</time></trkpt><trkpt lat="31.3066033088" lon="35.5363535509"><ele>-358.43</ele><time>2015-11-20T13:55:39Z</time></trkpt><trkpt lat="31.3055893499" lon="35.5359233078"><ele>-359.88</ele><time>2015-11-20T13:55:56Z</time></trkpt><trkpt lat="31.3046310470" lon="35.5355784763"><ele>-360.84</ele><time>2015-11-20T13:56:12Z</time></trkpt><trkpt lat="31.3035708200" lon="35.5352768954"><ele>-360.36</ele><time>2015-11-20T13:56:30Z</time></trkpt><trkpt lat="31.3024541829" lon="35.5350346584"><ele>-359.40</ele><time>2015-11-20T13:56:50Z</time></trkpt><trkpt lat="31.3013767730" lon="35.5348905735"><ele>-357.47</ele><time>2015-11-20T13:57:10Z</time></trkpt><trkpt lat="31.3004510757" lon="35.5348222610"><ele>-355.55</ele><time>2015-11-20T13:57:28Z</time></trkpt><trkpt lat="31.2995441537" lon="35.5348076764"><ele>-353.63</ele><time>2015-11-20T13:57:46Z</time></trkpt><trkpt lat="31.2986953184" lon="35.5348344985"><ele>-352.67</ele><time>2015-11-20T13:58:04Z</time></trkpt><trkpt lat="31.2978260312" lon="35.5348814372"><ele>-350.74</ele><time>2015-11-20T13:58:22Z</time></trkpt><trkpt lat="31.2969175167" lon="35.5349198263"><ele>-349.30</ele><time>2015-11-20T13:58:41Z</time></trkpt><trkpt lat="31.2962464616" lon="35.5349370092"><ele>-348.82</ele><time>2015-11-20T13:58:57Z</time></trkpt><trkpt lat="31.2952342629" lon="35.5349732190"><ele>-348.34</ele><time>2015-11-20T13:59:19Z</time></trkpt><trkpt lat="31.2946257368" lon="35.5349618196"><ele>-348.34</ele><time>2015-11-20T13:59:31Z</time></trkpt><trkpt lat="31.2937752251" lon="35.5349018890"><ele>-348.82</ele><time>2015-11-20T13:59:47Z</time></trkpt><trkpt lat="31.2929291558" lon="35.5347737297"><ele>-350.74</ele><time>2015-11-20T14:00:04Z</time></trkpt><trkpt lat="31.2919736188" lon="35.5345970392"><ele>-352.67</ele><time>2015-11-20T14:00:21Z</time></trkpt><trkpt lat="31.2909527030" lon="35.5343339313"><ele>-355.55</ele><time>2015-11-20T14:00:38Z</time></trkpt><trkpt lat="31.2899198849" lon="35.5339708272"><ele>-358.43</ele><time>2015-11-20T14:00:54Z</time></trkpt><trkpt lat="31.2889406271" lon="35.5335775483"><ele>-358.92</ele><time>2015-11-20T14:01:11Z</time></trkpt><trkpt lat="31.2880331185" lon="35.5331990216"><ele>-358.43</ele><time>2015-11-20T14:01:29Z</time></trkpt><trkpt lat="31.2871232629" lon="35.5328124482"><ele>-358.92</ele><time>2015-11-20T14:01:47Z</time></trkpt><trkpt lat="31.2864344381" lon="35.5325428862"><ele>-358.43</ele><time>2015-11-20T14:02:01Z</time></trkpt><trkpt lat="31.2862880062" lon="35.5324708857"><ele>-358.43</ele><time>2015-11-20T14:02:04Z</time></trkpt><trkpt lat="31.2859202921" lon="35.5323068518"><ele>-358.43</ele><time>2015-11-20T14:02:12Z</time></trkpt><trkpt lat="31.2858748622" lon="35.5322882440"><ele>-358.92</ele><time>2015-11-20T14:02:13Z</time></trkpt><trkpt lat="31.2850681040" lon="35.5319461785"><ele>-359.88</ele><time>2015-11-20T14:02:29Z</time></trkpt><trkpt lat="31.2842369545" lon="35.5316052865"><ele>-363.24</ele><time>2015-11-20T14:02:43Z</time></trkpt><trkpt lat="31.2830942497" lon="35.5311289430"><ele>-366.12</ele><time>2015-11-20T14:03:02Z</time></trkpt><trkpt lat="31.2818491179" lon="35.5306037329"><ele>-368.05</ele><time>2015-11-20T14:03:23Z</time></trkpt><trkpt lat="31.2809024658" lon="35.5302164890"><ele>-366.12</ele><time>2015-11-20T14:03:43Z</time></trkpt><trkpt lat="31.2801421434" lon="35.5299005751"><ele>-364.68</ele><time>2015-11-20T14:04:01Z</time></trkpt><trkpt lat="31.2793196272" lon="35.5295790453"><ele>-366.12</ele><time>2015-11-20T14:04:17Z</time></trkpt><trkpt lat="31.2792642228" lon="35.5295507144"><ele>-366.12</ele><time>2015-11-20T14:04:18Z</time></trkpt><trkpt lat="31.2783534452" lon="35.5291381571"><ele>-365.16</ele><time>2015-11-20T14:04:35Z</time></trkpt><trkpt lat="31.2775079627" lon="35.5287933256"><ele>-362.28</ele><time>2015-11-20T14:04:53Z</time></trkpt><trkpt lat="31.2766982708" lon="35.5284532718"><ele>-360.36</ele><time>2015-11-20T14:05:10Z</time></trkpt><trkpt lat="31.2764654215" lon="35.5283453129"><ele>-360.36</ele><time>2015-11-20T14:05:15Z</time></trkpt><trkpt lat="31.2758778501" lon="35.5281117931"><ele>-358.92</ele><time>2015-11-20T14:05:29Z</time></trkpt><trkpt lat="31.2755903509" lon="35.5280097853"><ele>-358.43</ele><time>2015-11-20T14:05:36Z</time></trkpt><trkpt lat="31.2755507044" lon="35.5279915966"><ele>-358.43</ele><time>2015-11-20T14:05:37Z</time></trkpt><trkpt lat="31.2755148299" lon="35.5279660318"><ele>-358.43</ele><time>2015-11-20T14:05:38Z</time></trkpt><trkpt lat="31.2748905458" lon="35.5276900157"><ele>-356.99</ele><time>2015-11-20T14:05:53Z</time></trkpt><trkpt lat="31.2742408644" lon="35.5274269078"><ele>-355.55</ele><time>2015-11-20T14:06:09Z</time></trkpt><trkpt lat="31.2737659458" lon="35.5272287596"><ele>-353.15</ele><time>2015-11-20T14:06:24Z</time></trkpt><trkpt lat="31.2733488623" lon="35.5270747002"><ele>-350.74</ele><time>2015-11-20T14:06:40Z</time></trkpt><trkpt lat="31.2729904521" lon="35.5269099958"><ele>-348.82</ele><time>2015-11-20T14:06:53Z</time></trkpt><trkpt lat="31.2724864483" lon="35.5266911443"><ele>-345.94</ele><time>2015-11-20T14:07:10Z</time></trkpt><trkpt lat="31.2720128708" lon="35.5264933314"><ele>-343.05</ele><time>2015-11-20T14:07:26Z</time></trkpt><trkpt lat="31.2716949452" lon="35.5263799243"><ele>-341.61</ele><time>2015-11-20T14:07:38Z</time></trkpt><trkpt lat="31.2716868147" lon="35.5263761524"><ele>-341.13</ele><time>2015-11-20T14:07:53Z</time></trkpt><trkpt lat="31.2716883235" lon="35.5263629928"><ele>-341.61</ele><time>2015-11-20T14:08:13Z</time></trkpt><trkpt lat="31.2717410456" lon="35.5263898987"><ele>-341.61</ele><time>2015-11-20T14:08:36Z</time></trkpt><trkpt lat="31.2717566360" lon="35.5263919942"><ele>-341.61</ele><time>2015-11-20T14:08:48Z</time></trkpt><trkpt lat="31.2717647664" lon="35.5263832770"><ele>-341.61</ele><time>2015-11-20T14:08:49Z</time></trkpt><trkpt lat="31.2717893254" lon="35.5263013858"><ele>-342.09</ele><time>2015-11-20T14:08:55Z</time></trkpt><trkpt lat="31.2718088552" lon="35.5261583067"><ele>-342.09</ele><time>2015-11-20T14:09:15Z</time></trkpt><trkpt lat="31.2718215957" lon="35.5261393636"><ele>-342.57</ele><time>2015-11-20T14:09:35Z</time></trkpt><trkpt lat="31.2718343362" lon="35.5261270422"><ele>-342.09</ele><time>2015-11-20T14:10:25Z</time></trkpt><trkpt lat="31.2718019821" lon="35.5261510145"><ele>-342.09</ele><time>2015-11-20T14:11:18Z</time></trkpt><trkpt lat="31.2718031555" lon="35.5261704605"><ele>-342.09</ele><time>2015-11-20T14:12:10Z</time></trkpt><trkpt lat="31.2718320731" lon="35.5261640064"><ele>-342.09</ele><time>2015-11-20T14:12:57Z</time></trkpt><trkpt lat="31.2718220148" lon="35.5261574686"><ele>-342.09</ele><time>2015-11-20T14:13:58Z</time></trkpt><trkpt lat="31.2718153093" lon="35.5261427164"><ele>-342.09</ele><time>2015-11-20T14:14:38Z</time></trkpt><trkpt lat="31.2718173210" lon="35.5261675268"><ele>-342.09</ele><time>2015-11-20T14:15:16Z</time></trkpt><trkpt lat="31.2718037423" lon="35.5261583906"><ele>-342.09</ele><time>2015-11-20T14:16:00Z</time></trkpt><trkpt lat="31.2717915885" lon="35.5261557084"><ele>-342.09</ele><time>2015-11-20T14:16:40Z</time></trkpt><trkpt lat="31.2718013115" lon="35.5261627492"><ele>-342.09</ele><time>2015-11-20T14:17:15Z</time></trkpt><trkpt lat="31.2717959471" lon="35.5261562951"><ele>-342.09</ele><time>2015-11-20T14:18:06Z</time></trkpt><trkpt lat="31.2718134653" lon="35.5261528585"><ele>-342.09</ele><time>2015-11-20T14:18:44Z</time></trkpt><trkpt lat="31.2718065083" lon="35.5261508469"><ele>-342.09</ele><time>2015-11-20T14:19:27Z</time></trkpt><trkpt lat="31.2718189973" lon="35.5261324905"><ele>-342.09</ele><time>2015-11-20T14:20:11Z</time></trkpt><trkpt lat="31.2717885710" lon="35.5261776689"><ele>-342.09</ele><time>2015-11-20T14:21:03Z</time></trkpt><trkpt lat="31.2717799377" lon="35.5261820275"><ele>-342.09</ele><time>2015-11-20T14:21:58Z</time></trkpt><trkpt lat="31.2718125433" lon="35.5261754896"><ele>-342.09</ele><time>2015-11-20T14:22:50Z</time></trkpt><trkpt lat="31.2718342524" lon="35.5261448957"><ele>-341.61</ele><time>2015-11-20T14:23:46Z</time></trkpt><trkpt lat="31.2718355097" lon="35.5261683650"><ele>-341.61</ele><time>2015-11-20T14:24:40Z</time></trkpt><trkpt lat="31.2718170695" lon="35.5261624139"><ele>-341.61</ele><time>2015-11-20T14:25:25Z</time></trkpt><trkpt lat="31.2718071789" lon="35.5261790100"><ele>-341.61</ele><time>2015-11-20T14:26:16Z</time></trkpt><trkpt lat="31.2718235236" lon="35.5261448119"><ele>-341.61</ele><time>2015-11-20T14:27:15Z</time></trkpt><trkpt lat="31.2718407065" lon="35.5261417106"><ele>-341.61</ele><time>2015-11-20T14:28:01Z</time></trkpt><trkpt lat="31.2718482502" lon="35.5261621624"><ele>-341.61</ele><time>2015-11-20T14:28:46Z</time></trkpt><trkpt lat="31.2718251161" lon="35.5261619948"><ele>-340.17</ele><time>2015-11-20T14:29:26Z</time></trkpt><trkpt lat="31.2718218472" lon="35.5261513498"><ele>-341.61</ele><time>2015-11-20T14:29:42Z</time></trkpt><trkpt lat="31.2718330789" lon="35.5261148885"><ele>-341.61</ele><time>2015-11-20T14:29:50Z</time></trkpt><trkpt lat="31.2718009762" lon="35.5260998849"><ele>-341.61</ele><time>2015-11-20T14:30:04Z</time></trkpt><trkpt lat="31.2718273792" lon="35.5260651000"><ele>-342.09</ele><time>2015-11-20T14:30:12Z</time></trkpt><trkpt lat="31.2719138805" lon="35.5260456540"><ele>-342.09</ele><time>2015-11-20T14:30:30Z</time></trkpt></trkseg></trk></gpx>